Enchantment of the Seas — C6FZ7 — position and weather

sailwx.info

Track history (hours):
 
Tides and Currents Weather Stations Pressure Air Temp Water Temp Dewpoint Dewpoint Depression Visibility Wind Speed Wind Dir Waves Ship Positions

Enchantment of the Seas (Bahamas)

Last reported at 2019-Sep-21 11:00 UTC. Time now 2019-Sep-21 23:33 UTC.
Position N 26°18' W 093°18'.

Type: Passenger vessel. MMSI: 311733000.

Wind from 100 at 18 knots

Barometer 1012.2 mb
Air temperature 29.0 ° C
Dewpoint 29.0 ° C
Water temperature 29.0 ° C

Date/timePositionNaut miles runAvg speedWind from/ knotsBaromVisibWave heightAir tempDewpointWater temp
2019-Sep-21 11:00N 26°18' W 093°18'8716.9 100 / 181012.2 29.029.029.0
2019-Sep-21 05:52N 27°28' W 094°14'7215.0
2019-Sep-21 01:04N 28°40' W 094°25'3713.7
2019-Sep-20 22:21N 29°16' W 094°35'411.0
2019-Sep-20 22:00N 29°19' W 094°38'714.2
2019-Sep-20 21:30N 29°20' W 094°46'2 4.1
2019-Sep-20 21:00N 29°19' W 094°48'0 0.1
2019-Sep-20 19:40N 29°19' W 094°48'0 0.0
2019-Sep-20 19:10N 29°19' W 094°48'0 0.0
2019-Sep-20 18:55N 29°19' W 094°48'0 0.0
2019-Sep-20 18:16N 29°19' W 094°48'0 0.0
2019-Sep-20 17:52N 29°19' W 094°48'0 0.0
2019-Sep-20 16:49N 29°18' W 094°48'0 0.0
2019-Sep-20 16:28N 29°18' W 094°48'0 0.0
2019-Sep-20 15:55N 29°19' W 094°48'0 0.0
2019-Sep-20 15:10N 29°19' W 094°48'0 0.0
2019-Sep-20 14:37N 29°19' W 094°48'0 0.0
2019-Sep-20 14:25N 29°18' W 094°48'0 0.0
2019-Sep-20 13:58N 29°19' W 094°48'0 0.0
2019-Sep-20 12:55N 29°19' W 094°48'0 0.0
2019-Sep-20 12:22N 29°19' W 094°48'0 0.0
2019-Sep-20 11:58N 29°19' W 094°48'2 3.8
2019-Sep-20 11:30N 29°20' W 094°47'611.2
2019-Sep-20 11:00N 29°20' W 094°40'4018.0
2019-Sep-20 08:46N 28°57' W 094°02'720.0
2019-Sep-20 08:25N 28°53' W 093°56'50523.6
2019-Sep-19 11:00N 22°42' W 087°36'13110.5 080 / 121009.2 29.029.029.0
2019-Sep-18 22:28N 20°36' W 086°56'715.6
2019-Sep-18 22:01N 20°29' W 086°59'0 0.3
2019-Sep-18 21:30N 20°29' W 086°59'0 0.0
2019-Sep-18 21:00N 20°29' W 086°59'0 0.0
2019-Sep-18 20:30N 20°29' W 086°59'0 0.0
2019-Sep-18 20:00N 20°29' W 086°59'0 0.0
2019-Sep-18 19:30N 20°29' W 086°59'0 0.0
2019-Sep-18 19:00N 20°29' W 086°59'0 0.0
2019-Sep-18 18:30N 20°29' W 086°59'0 0.0
2019-Sep-18 17:57N 20°29' W 086°59'0 0.0
2019-Sep-18 17:30N 20°29' W 086°59'0 0.0
2019-Sep-18 17:00N 20°29' W 086°59'0 0.0
2019-Sep-18 16:30N 20°29' W 086°59'0 0.0
2019-Sep-18 16:00N 20°29' W 086°59'0 0.0
2019-Sep-18 15:30N 20°29' W 086°59'0 0.0
2019-Sep-18 15:00N 20°29' W 086°59'0 0.0
2019-Sep-18 14:30N 20°29' W 086°59'0 0.0
2019-Sep-18 14:00N 20°29' W 086°59'0 0.0
2019-Sep-18 13:30N 20°29' W 086°59'0 0.1
2019-Sep-18 13:00N 20°29' W 086°59'1 1.6
2019-Sep-18 12:30N 20°30' W 086°59'510.9
2019-Sep-18 12:00N 20°35' W 086°57'4711.8
2019-Sep-18 08:00N 21°18' W 086°36'2022.9 050 / 61011.2 28.028.029.0
2019-Sep-18 07:08N 21°36' W 086°43'315.9
2019-Sep-18 06:55N 21°39' W 086°45'715.7
2019-Sep-18 06:30N 21°45' W 086°49'59819.2
2019-Sep-16 23:22N 29°05' W 094°17'816.5
2019-Sep-16 22:52N 29°09' W 094°26'1116.2
2019-Sep-16 22:10N 29°16' W 094°36'215.5
2019-Sep-16 22:00N 29°18' W 094°38'612.5
2019-Sep-16 21:30N 29°21' W 094°44'4 7.9
2019-Sep-16 21:00N 29°19' W 094°48'0 0.0
2019-Sep-16 20:26N 29°19' W 094°48'0 0.0
2019-Sep-16 19:59N 29°19' W 094°48'0 0.0
2019-Sep-16 19:29N 29°19' W 094°48'0 0.0
2019-Sep-16 18:53N 29°19' W 094°48'0 0.0
2019-Sep-16 18:29N 29°19' W 094°48'0 0.0
2019-Sep-16 17:56N 29°19' W 094°48'0 0.0
2019-Sep-16 17:26N 29°19' W 094°48'0 0.0
2019-Sep-16 16:59N 29°19' W 094°48'0 0.0
2019-Sep-16 16:26N 29°19' W 094°48'0 0.0
2019-Sep-16 15:59N 29°19' W 094°48'0 0.0
2019-Sep-16 15:29N 29°19' W 094°48'0 0.0
2019-Sep-16 14:59N 29°19' W 094°48'0 0.0
2019-Sep-16 14:29N 29°19' W 094°48'0 0.0
2019-Sep-16 13:59N 29°19' W 094°48'0 0.0
2019-Sep-16 13:29N 29°19' W 094°48'0 0.0
2019-Sep-16 12:59N 29°19' W 094°48'0 0.0
2019-Sep-16 12:23N 29°19' W 094°48'0 0.0
2019-Sep-16 11:59N 29°19' W 094°48'1 1.5
2019-Sep-16 11:30N 29°19' W 094°47'2 4.6
2019-Sep-16 11:00N 29°21' W 094°46'714.5
2019-Sep-16 10:30N 29°18' W 094°38'67018.6
2019-Sep-14 22:24N 20°35' W 086°57'614.8
2019-Sep-14 22:00N 20°29' W 086°59'0 0.2
2019-Sep-14 21:29N 20°29' W 086°59'0 0.0
2019-Sep-14 20:59N 20°29' W 086°59'0 0.0
2019-Sep-14 20:29N 20°29' W 086°59'0 0.0
2019-Sep-14 19:59N 20°29' W 086°59'0 0.0
2019-Sep-14 19:29N 20°29' W 086°59'0 0.0
2019-Sep-14 18:59N 20°29' W 086°59'0 0.0
2019-Sep-14 18:29N 20°29' W 086°59'0 0.0
2019-Sep-14 17:59N 20°29' W 086°59'0 0.0
2019-Sep-14 17:29N 20°29' W 086°59'0 0.0
2019-Sep-14 16:59N 20°29' W 086°59'0 0.0
2019-Sep-14 16:29N 20°29' W 086°59'0 0.0
2019-Sep-14 15:59N 20°29' W 086°59'0 0.0
2019-Sep-14 15:29N 20°29' W 086°59'0 0.0
2019-Sep-14 14:56N 20°29' W 086°59'0 0.0
2019-Sep-14 14:29N 20°29' W 086°59'0 0.0
2019-Sep-14 13:59N 20°29' W 086°59'0 0.0
2019-Sep-14 13:29N 20°29' W 086°59'0 0.0
2019-Sep-14 12:59N 20°29' W 086°59'0 0.0
2019-Sep-14 12:29N 20°29' W 086°59'0 0.0
2019-Sep-14 12:00N 20°29' W 086°59'1 2.4
2019-Sep-14 11:31N 20°30' W 086°59'404 8.3
2019-Sep-12 11:00N 26°12' W 090°54'13722.8 090 / 201012.8 28.323.529.0
2019-Sep-12 05:00N 27°54' W 092°36'6921.3 090 / 211015.1 28.724.130.0
2019-Sep-12 01:45N 28°39' W 093°35'520.3
2019-Sep-12 01:29N 28°42' W 093°40'1220.2
2019-Sep-12 00:53N 28°49' W 093°52'820.1
2019-Sep-12 00:30N 28°54' W 093°59'1120.0
2019-Sep-11 23:57N 29°00' W 094°09'919.5
2019-Sep-11 23:29N 29°05' W 094°18'2018.8
2019-Sep-11 22:24N 29°17' W 094°37'512.6
2019-Sep-11 22:00N 29°20' W 094°41'611.1
2019-Sep-11 21:30N 29°19' W 094°47'1 2.0
2019-Sep-11 21:01N 29°19' W 094°48'0 0.0
2019-Sep-11 20:28N 29°19' W 094°48'0 0.0
2019-Sep-11 19:58N 29°19' W 094°48'0 0.0
2019-Sep-11 19:25N 29°19' W 094°48'0 0.0
2019-Sep-11 18:58N 29°19' W 094°48'0 0.0
2019-Sep-11 18:28N 29°19' W 094°48'0 0.0
2019-Sep-11 17:58N 29°19' W 094°48'0 0.0
2019-Sep-11 17:28N 29°19' W 094°48'0 0.0
2019-Sep-11 16:52N 29°19' W 094°48'0 0.0
2019-Sep-11 16:28N 29°19' W 094°48'0 0.0
2019-Sep-11 15:58N 29°19' W 094°48'0 0.0
2019-Sep-11 15:28N 29°19' W 094°48'0 0.0
2019-Sep-11 14:58N 29°19' W 094°48'0 0.0
2019-Sep-11 14:28N 29°19' W 094°48'0 0.0
2019-Sep-11 13:55N 29°19' W 094°48'0 0.0
2019-Sep-11 13:28N 29°19' W 094°48'0 0.0
2019-Sep-11 12:58N 29°19' W 094°48'0 0.0
2019-Sep-11 12:22N 29°19' W 094°48'0 0.0
2019-Sep-11 11:58N 29°19' W 094°48'0 0.4
2019-Sep-11 11:30N 29°19' W 094°48'1 2.8
2019-Sep-11 11:00N 29°20' W 094°47'  
Track history (hours):
 
Tides and Currents Weather Stations Pressure Air Temp Water Temp Dewpoint Dewpoint Depression Visibility Wind Speed Wind Dir Waves Ship Positions

Enchantment of the Seas (Bahamas)

Last reported at 2019-Sep-21 11:00 UTC. Time now 2019-Sep-21 23:33 UTC.
Position N 26°18' W 093°18'.

Type: Passenger vessel. MMSI: 311733000.

Wind from 100 at 18 knots

Barometer 1012.2 mb
Air temperature 29.0 ° C
Dewpoint 29.0 ° C
Water temperature 29.0 ° C

Date/timePositionNaut miles runAvg speedWind from/ knotsBaromVisibWave heightAir tempDewpointWater temp
2019-Sep-21 11:00N 26°18' W 093°18'8716.9 100 / 181012.2 29.029.029.0
2019-Sep-21 05:52N 27°28' W 094°14'7215.0
2019-Sep-21 01:04N 28°40' W 094°25'3713.7
2019-Sep-20 22:21N 29°16' W 094°35'411.0
2019-Sep-20 22:00N 29°19' W 094°38'714.2
2019-Sep-20 21:30N 29°20' W 094°46'2 4.1
2019-Sep-20 21:00N 29°19' W 094°48'0 0.1
2019-Sep-20 19:40N 29°19' W 094°48'0 0.0
2019-Sep-20 19:10N 29°19' W 094°48'0 0.0
2019-Sep-20 18:55N 29°19' W 094°48'0 0.0
2019-Sep-20 18:16N 29°19' W 094°48'0 0.0
2019-Sep-20 17:52N 29°19' W 094°48'0 0.0
2019-Sep-20 16:49N 29°18' W 094°48'0 0.0
2019-Sep-20 16:28N 29°18' W 094°48'0 0.0
2019-Sep-20 15:55N 29°19' W 094°48'0 0.0
2019-Sep-20 15:10N 29°19' W 094°48'0 0.0
2019-Sep-20 14:37N 29°19' W 094°48'0 0.0
2019-Sep-20 14:25N 29°18' W 094°48'0 0.0
2019-Sep-20 13:58N 29°19' W 094°48'0 0.0
2019-Sep-20 12:55N 29°19' W 094°48'0 0.0
2019-Sep-20 12:22N 29°19' W 094°48'0 0.0
2019-Sep-20 11:58N 29°19' W 094°48'2 3.8
2019-Sep-20 11:30N 29°20' W 094°47'611.2
2019-Sep-20 11:00N 29°20' W 094°40'4018.0
2019-Sep-20 08:46N 28°57' W 094°02'720.0
2019-Sep-20 08:25N 28°53' W 093°56'50523.6
2019-Sep-19 11:00N 22°42' W 087°36'13110.5 080 / 121009.2 29.029.029.0
2019-Sep-18 22:28N 20°36' W 086°56'715.6
2019-Sep-18 22:01N 20°29' W 086°59'0 0.3
2019-Sep-18 21:30N 20°29' W 086°59'0 0.0
2019-Sep-18 21:00N 20°29' W 086°59'0 0.0
2019-Sep-18 20:30N 20°29' W 086°59'0 0.0
2019-Sep-18 20:00N 20°29' W 086°59'0 0.0
2019-Sep-18 19:30N 20°29' W 086°59'0 0.0
2019-Sep-18 19:00N 20°29' W 086°59'0 0.0
2019-Sep-18 18:30N 20°29' W 086°59'0 0.0
2019-Sep-18 17:57N 20°29' W 086°59'0 0.0
2019-Sep-18 17:30N 20°29' W 086°59'0 0.0
2019-Sep-18 17:00N 20°29' W 086°59'0 0.0
2019-Sep-18 16:30N 20°29' W 086°59'0 0.0
2019-Sep-18 16:00N 20°29' W 086°59'0 0.0
2019-Sep-18 15:30N 20°29' W 086°59'0 0.0
2019-Sep-18 15:00N 20°29' W 086°59'0 0.0
2019-Sep-18 14:30N 20°29' W 086°59'0 0.0
2019-Sep-18 14:00N 20°29' W 086°59'0 0.0
2019-Sep-18 13:30N 20°29' W 086°59'0 0.1
2019-Sep-18 13:00N 20°29' W 086°59'1 1.6
2019-Sep-18 12:30N 20°30' W 086°59'510.9
2019-Sep-18 12:00N 20°35' W 086°57'4711.8
2019-Sep-18 08:00N 21°18' W 086°36'2022.9 050 / 61011.2 28.028.029.0
2019-Sep-18 07:08N 21°36' W 086°43'315.9
2019-Sep-18 06:55N 21°39' W 086°45'715.7
2019-Sep-18 06:30N 21°45' W 086°49'59819.2
2019-Sep-16 23:22N 29°05' W 094°17'816.5
2019-Sep-16 22:52N 29°09' W 094°26'1116.2
2019-Sep-16 22:10N 29°16' W 094°36'215.5
2019-Sep-16 22:00N 29°18' W 094°38'612.5
2019-Sep-16 21:30N 29°21' W 094°44'4 7.9
2019-Sep-16 21:00N 29°19' W 094°48'0 0.0
2019-Sep-16 20:26N 29°19' W 094°48'0 0.0
2019-Sep-16 19:59N 29°19' W 094°48'0 0.0
2019-Sep-16 19:29N 29°19' W 094°48'0 0.0
2019-Sep-16 18:53N 29°19' W 094°48'0 0.0
2019-Sep-16 18:29N 29°19' W 094°48'0 0.0
2019-Sep-16 17:56N 29°19' W 094°48'0 0.0
2019-Sep-16 17:26N 29°19' W 094°48'0 0.0
2019-Sep-16 16:59N 29°19' W 094°48'0 0.0
2019-Sep-16 16:26N 29°19' W 094°48'0 0.0
2019-Sep-16 15:59N 29°19' W 094°48'0 0.0
2019-Sep-16 15:29N 29°19' W 094°48'0 0.0
2019-Sep-16 14:59N 29°19' W 094°48'0 0.0
2019-Sep-16 14:29N 29°19' W 094°48'0 0.0
2019-Sep-16 13:59N 29°19' W 094°48'0 0.0
2019-Sep-16 13:29N 29°19' W 094°48'0 0.0
2019-Sep-16 12:59N 29°19' W 094°48'0 0.0
2019-Sep-16 12:23N 29°19' W 094°48'0 0.0
2019-Sep-16 11:59N 29°19' W 094°48'1 1.5
2019-Sep-16 11:30N 29°19' W 094°47'2 4.6
2019-Sep-16 11:00N 29°21' W 094°46'714.5
2019-Sep-16 10:30N 29°18' W 094°38'67018.6
2019-Sep-14 22:24N 20°35' W 086°57'614.8
2019-Sep-14 22:00N 20°29' W 086°59'0 0.2
2019-Sep-14 21:29N 20°29' W 086°59'0 0.0
2019-Sep-14 20:59N 20°29' W 086°59'0 0.0
2019-Sep-14 20:29N 20°29' W 086°59'0 0.0
2019-Sep-14 19:59N 20°29' W 086°59'0 0.0
2019-Sep-14 19:29N 20°29' W 086°59'0 0.0
2019-Sep-14 18:59N 20°29' W 086°59'0 0.0
2019-Sep-14 18:29N 20°29' W 086°59'0 0.0
2019-Sep-14 17:59N 20°29' W 086°59'0 0.0
2019-Sep-14 17:29N 20°29' W 086°59'0 0.0
2019-Sep-14 16:59N 20°29' W 086°59'0 0.0
2019-Sep-14 16:29N 20°29' W 086°59'0 0.0
2019-Sep-14 15:59N 20°29' W 086°59'0 0.0
2019-Sep-14 15:29N 20°29' W 086°59'0 0.0
2019-Sep-14 14:56N 20°29' W 086°59'0 0.0
2019-Sep-14 14:29N 20°29' W 086°59'0 0.0
2019-Sep-14 13:59N 20°29' W 086°59'0 0.0
2019-Sep-14 13:29N 20°29' W 086°59'0 0.0
2019-Sep-14 12:59N 20°29' W 086°59'0 0.0
2019-Sep-14 12:29N 20°29' W 086°59'0 0.0
2019-Sep-14 12:00N 20°29' W 086°59'1 2.4
2019-Sep-14 11:31N 20°30' W 086°59'404 8.3
2019-Sep-12 11:00N 26°12' W 090°54'13722.8 090 / 201012.8 28.323.529.0
2019-Sep-12 05:00N 27°54' W 092°36'6921.3 090 / 211015.1 28.724.130.0
2019-Sep-12 01:45N 28°39' W 093°35'520.3
2019-Sep-12 01:29N 28°42' W 093°40'1220.2
2019-Sep-12 00:53N 28°49' W 093°52'820.1
2019-Sep-12 00:30N 28°54' W 093°59'1120.0
2019-Sep-11 23:57N 29°00' W 094°09'919.5
2019-Sep-11 23:29N 29°05' W 094°18'2018.8
2019-Sep-11 22:24N 29°17' W 094°37'512.6
2019-Sep-11 22:00N 29°20' W 094°41'611.1
2019-Sep-11 21:30N 29°19' W 094°47'1 2.0
2019-Sep-11 21:01N 29°19' W 094°48'0 0.0
2019-Sep-11 20:28N 29°19' W 094°48'0 0.0
2019-Sep-11 19:58N 29°19' W 094°48'0 0.0
2019-Sep-11 19:25N 29°19' W 094°48'0 0.0
2019-Sep-11 18:58N 29°19' W 094°48'0 0.0
2019-Sep-11 18:28N 29°19' W 094°48'0 0.0
2019-Sep-11 17:58N 29°19' W 094°48'0 0.0
2019-Sep-11 17:28N 29°19' W 094°48'0 0.0
2019-Sep-11 16:52N 29°19' W 094°48'0 0.0
2019-Sep-11 16:28N 29°19' W 094°48'0 0.0
2019-Sep-11 15:58N 29°19' W 094°48'0 0.0
2019-Sep-11 15:28N 29°19' W 094°48'0 0.0
2019-Sep-11 14:58N 29°19' W 094°48'0 0.0
2019-Sep-11 14:28N 29°19' W 094°48'0 0.0
2019-Sep-11 13:55N 29°19' W 094°48'0 0.0
2019-Sep-11 13:28N 29°19' W 094°48'0 0.0
2019-Sep-11 12:58N 29°19' W 094°48'0 0.0
2019-Sep-11 12:22N 29°19' W 094°48'0 0.0
2019-Sep-11 11:58N 29°19' W 094°48'0 0.4
2019-Sep-11 11:30N 29°19' W 094°48'1 2.8
2019-Sep-11 11:00N 29°20' W 094°47'  

Dump ship's entire track history